Aérodrome :
LOGIN :

S'inscrire | Disclaimer

   EN    FR    IT 

 










Légende :    VFR   VFR Marginal   IFR   IFR Intensif   IFR Très Intensif
Visi : 
Plafond : 
>= 8 km
>= 3000ft
5 à 8 km
1000 à 3000 ft
1500m à 5 km
500 à 1000 ft
800 à 1500m
200 à 500 ft
< 800m
< 200 ft
Symboles :   Orages  Brouillard  Fortes neiges  Fortes précipitations  Vent > 20 kt
SIGMETs :   Divers  Orages  Givrage  Turbulence  Onde Orograph.  Cendres Volcan.







- Altitude de l'aérodrome : 156 ft
- Code IATA : LCC


LIBN - Lecce Galatine (military)

DERNIER METAR :
  • 201855Z VRB03KT CAVOK 06/04 Q1021 RMK SKC VIS MIN 9999 WIND THR14 VRB03KT WIND THR32 VRB03KT BLU

METARs EXPIRÉS :
  • 201755Z 30007KT 9999 FEW040 07/05 Q1020 RMK FEW VIS MIN 9999 WIND THR14 29007KT WIND THR32 30007KT BLU
  • 201655Z 30006KT 9999 FEW040 08/05 Q1020 RMK SCT VIS MIN 9999 WIND THR14 30007KT WIND THR32 30007KT BLU
  • 201555Z 31008KT 9999 FEW040 10/04 Q1019 RMK SCT VIS MIN 9999 WIND THR14 31007KT WIND THR32 30007KT BLU

TAF TAF LIBN
Valide du 20 à 15h jusqu'au 21 à 00h UTC


201400Z 2015/2024 34015KT 9999 FEW040
TEMPO 2015/2016 34015G26KT
Pas de NOTAMs connus pour ce terrain.



MET'MAP, la Météo Aéronautique d'un coup d'oeil ! - Copyright ORBIFLY Décembre 2007 - Disclaimer

ORBIFLY MET'MAP TEAM :

Programmation & Développement : Alexandra Zaïnal
Conception & Développement : Baudouin d'Aumeries
Co-Programmation & Développement : Marc-Olivier Méhu
Soutien technique & logistique : Manuel Goepfert

Contact : metmap@orbifly.com




SOURCES & CREDITS :

   NOAA